Time;durP1;ratioP1;P1;durP2;ratioP2;P2;SDS_P1;SDS_P2;PMS_P1;PMS_P2;Temp;Humidity;BMP_temperature;BMP_pressure;BME280_temperature;BME280_humidity;BME280_pressure;Samples;Min_cycle;Max_cycle;Signal;HPM_P1;HPM_P2
2023/05/03 00:02:43;;;;;;;4.20;3.30;;;;;;;11.44;62.37;100537.73;220439;1257;140856;-67
2023/05/03 00:07:47;;;;;;;9.00;3.80;;;;;;;11.45;62.55;100539.58;219849;1258;140158;-68
2023/05/03 00:12:52;;;;;;;5.70;3.50;;;;;;;11.43;62.58;100542.67;219762;1258;141607;-68
2023/05/03 00:17:55;;;;;;;7.90;3.80;;;;;;;11.39;62.74;100546.18;220049;1258;140579;-68
2023/05/03 00:23:01;;;;;;;5.50;3.30;;;;;;;11.39;62.62;100550.05;219215;1257;140488;-67
2023/05/03 00:28:07;;;;;;;4.20;3.30;;;;;;;11.38;62.69;100552.65;218473;1257;140722;-67
2023/05/03 00:33:11;;;;;;;8.00;3.70;;;;;;;11.33;62.64;100550.31;219004;1258;140230;-67
2023/05/03 00:38:15;;;;;;;9.00;3.50;;;;;;;11.29;62.78;100549.09;218624;1256;140014;-67
2023/05/03 00:43:20;;;;;;;11.20;4.90;;;;;;;11.22;62.76;100547.19;218123;1257;139638;-67
2023/05/03 00:48:25;;;;;;;4.60;3.50;;;;;;;11.16;63.22;100551.22;218654;1257;153313;-67
2023/05/03 00:53:30;;;;;;;6.50;4.00;;;;;;;11.09;63.30;100558.90;218089;1259;139716;-66
2023/05/03 00:58:38;;;;;;;11.40;4.90;;;;;;;11.05;63.40;100557.90;219148;1257;140215;-66
2023/05/03 01:03:45;;;;;;;6.80;3.80;;;;;;;11.02;63.77;100557.92;218587;1256;140769;-66
2023/05/03 01:08:59;;;;;;;9.20;4.00;;;;;;;10.98;63.90;100551.30;217976;1257;140722;-66
2023/05/03 01:14:30;;;;;;;5.80;3.90;;;;;;;10.95;64.28;100561.08;218160;1257;141618;-67
2023/05/03 01:19:50;;;;;;;5.90;3.90;;;;;;;10.90;64.43;100566.98;217772;1257;140658;-67
2023/05/03 01:25:09;;;;;;;8.20;4.00;;;;;;;10.82;64.64;100566.13;218117;1257;140263;-66
2023/05/03 01:30:14;;;;;;;8.60;4.70;;;;;;;10.77;64.99;100575.92;218568;1260;139871;-65
2023/05/03 01:35:33;;;;;;;8.60;4.80;;;;;;;10.74;65.18;100585.46;219788;1258;140254;-66
2023/05/03 01:40:46;;;;;;;4.90;3.90;;;;;;;10.71;65.37;100594.02;219069;1257;140084;-66
2023/05/03 01:45:52;;;;;;;6.80;4.40;;;;;;;10.69;65.66;100596.30;220274;1256;140199;-66
2023/05/03 01:50:57;;;;;;;8.30;4.50;;;;;;;10.66;65.82;100594.64;219530;1257;139878;-66
2023/05/03 01:56:02;;;;;;;5.00;4.20;;;;;;;10.62;66.12;100596.87;219014;1256;140169;-66
2023/05/03 02:01:06;;;;;;;8.30;4.60;;;;;;;10.56;66.26;100599.20;219935;1255;139904;-67
2023/05/03 02:06:10;;;;;;;5.40;3.90;;;;;;;10.52;66.36;100598.73;220030;1256;141211;-66
2023/05/03 02:11:14;;;;;;;6.60;4.30;;;;;;;10.46;66.33;100603.34;220560;1257;140375;-67
2023/05/03 02:16:19;;;;;;;5.30;4.00;;;;;;;10.45;66.29;100601.41;219367;1256;140418;-67
2023/05/03 02:21:25;;;;;;;11.40;3.60;;;;;;;10.39;66.16;100608.10;219439;1257;139661;-66
2023/05/03 02:26:29;;;;;;;4.80;3.40;;;;;;;10.30;66.23;100619.09;219324;1257;140198;-66
2023/05/03 02:31:32;;;;;;;5.40;4.40;;;;;;;10.25;66.40;100606.84;218020;1257;139702;-65
2023/05/03 02:36:36;;;;;;;7.10;4.10;;;;;;;10.22;66.32;100605.70;218652;1257;140039;-67
2023/05/03 02:41:39;;;;;;;4.80;3.90;;;;;;;10.19;66.17;100597.59;218576;1259;140841;-67
2023/05/03 02:46:43;;;;;;;3.40;3.10;;;;;;;10.16;66.02;100597.41;218227;1255;140102;-67
2023/05/03 02:51:47;;;;;;;9.40;3.80;;;;;;;10.11;66.03;100609.33;218280;1257;139578;-67
2023/05/03 02:56:53;;;;;;;7.30;4.50;;;;;;;10.01;65.85;100609.33;218143;1256;140136;-66
2023/05/03 03:01:58;;;;;;;9.90;3.20;;;;;;;9.88;65.99;100583.00;218764;1256;140529;-67
2023/05/03 03:07:02;;;;;;;5.00;3.90;;;;;;;9.80;66.17;100588.02;218348;1256;139649;-67
2023/05/03 03:12:07;;;;;;;3.90;3.10;;;;;;;9.79;66.68;100618.27;218668;1256;139924;-67
2023/05/03 03:17:11;;;;;;;10.30;4.50;;;;;;;9.77;66.88;100627.57;218042;1256;665897;-67
2023/05/03 03:22:16;;;;;;;6.80;5.10;;;;;;;9.77;67.12;100629.54;217947;1256;139855;-67
2023/05/03 03:27:22;;;;;;;7.40;4.60;;;;;;;9.74;67.36;100632.74;219235;1257;140016;-66
2023/05/03 03:32:27;;;;;;;5.00;4.50;;;;;;;9.72;67.73;100636.14;218927;1257;140189;-68
2023/05/03 03:37:32;;;;;;;9.50;6.40;;;;;;;9.67;67.85;100635.82;218490;1256;139800;-68
2023/05/03 03:42:38;;;;;;;9.80;5.10;;;;;;;9.57;68.31;100638.40;218704;1255;140144;-68
2023/05/03 03:47:42;;;;;;;9.30;6.20;;;;;;;9.48;68.62;100640.30;220500;1255;139541;-68
2023/05/03 03:52:47;;;;;;;9.10;5.00;;;;;;;9.41;68.81;100644.93;220446;1256;139839;-67
2023/05/03 03:57:51;;;;;;;10.10;5.90;;;;;;;9.41;69.11;100664.95;220571;1256;139744;-67
2023/05/03 04:02:55;;;;;;;12.00;7.10;;;;;;;9.54;69.28;100674.06;220605;1256;141919;-67
2023/05/03 04:07:59;;;;;;;8.60;6.20;;;;;;;9.72;69.37;100680.09;219812;1256;139686;-67
2023/05/03 04:13:04;;;;;;;8.10;5.50;;;;;;;10.08;69.31;100688.27;220274;1256;139490;-67
2023/05/03 04:18:10;;;;;;;8.10;6.10;;;;;;;10.38;69.00;100692.56;218793;1256;141793;-66
2023/05/03 04:23:16;;;;;;;14.20;6.60;;;;;;;10.47;68.78;100697.95;218326;1259;140025;-67
2023/05/03 04:28:24;;;;;;;9.40;6.20;;;;;;;10.35;68.35;100705.51;219437;1256;140343;-67
2023/05/03 04:33:30;;;;;;;8.10;6.70;;;;;;;10.28;68.15;100713.39;218207;1256;139754;-67
2023/05/03 04:38:34;;;;;;;10.90;7.00;;;;;;;10.17;68.09;100720.96;219753;1255;140885;-67
2023/05/03 04:43:38;;;;;;;7.70;5.10;;;;;;;10.04;68.03;100726.80;218796;1256;140676;-67
2023/05/03 04:48:42;;;;;;;8.50;5.60;;;;;;;9.90;67.86;100727.80;219252;1255;231379;-68
2023/05/03 04:53:48;;;;;;;10.10;7.60;;;;;;;9.74;67.53;100729.52;218320;1257;139890;-67
2023/05/03 04:58:54;;;;;;;9.40;6.20;;;;;;;9.63;67.71;100734.39;217830;1256;140024;-66
2023/05/03 05:04:00;;;;;;;8.90;5.60;;;;;;;9.57;67.89;100741.44;218808;1256;140162;-67
2023/05/03 05:09:23;;;;;;;9.00;6.00;;;;;;;9.57;67.96;100745.89;218177;1256;139768;-67
2023/05/03 05:14:30;;;;;;;10.20;5.10;;;;;;;9.57;67.58;100754.77;219240;1256;140828;-67
2023/05/03 05:19:35;;;;;;;6.50;4.20;;;;;;;9.61;67.62;100761.63;217934;1257;140201;-67
2023/05/03 05:24:40;;;;;;;8.00;4.30;;;;;;;9.64;67.04;100765.52;219361;1256;139358;-66
2023/05/03 05:29:45;;;;;;;4.00;3.10;;;;;;;9.67;66.43;100771.27;218065;1256;139598;-67
2023/05/03 05:34:54;;;;;;;5.10;3.40;;;;;;;9.78;66.19;100770.33;219617;1256;139322;-67
2023/05/03 05:39:59;;;;;;;6.20;4.20;;;;;;;9.92;65.72;100776.89;218157;1256;140941;-66
2023/05/03 05:45:06;;;;;;;3.20;2.90;;;;;;;10.04;65.51;100780.95;219007;1256;139893;-67
2023/05/03 05:50:12;;;;;;;5.00;4.00;;;;;;;10.19;64.96;100791.19;219184;1257;139741;-66
2023/05/03 05:55:22;;;;;;;6.90;3.10;;;;;;;10.38;64.46;100796.89;220618;1256;140522;-67
2023/05/03 06:00:29;;;;;;;7.10;3.40;;;;;;;10.61;63.70;100799.88;220155;1256;140430;-67
2023/05/03 06:05:34;;;;;;;2.50;2.30;;;;;;;10.95;63.35;100807.55;220310;1256;139970;-67
2023/05/03 06:10:38;;;;;;;7.40;3.20;;;;;;;11.28;62.15;100811.52;219365;1256;140064;-67
2023/05/03 06:15:43;;;;;;;2.30;2.00;;;;;;;11.38;61.39;100821.27;217873;1256;140468;-67
2023/05/03 06:20:52;;;;;;;3.80;2.00;;;;;;;11.42;60.72;100828.46;218456;1256;139918;-66
2023/05/03 06:25:57;;;;;;;3.50;2.20;;;;;;;11.38;60.13;100826.66;218894;1255;139460;-67
2023/05/03 06:31:02;;;;;;;1.70;1.60;;;;;;;11.36;59.57;100827.91;218366;1256;139543;-67
2023/05/03 06:36:13;;;;;;;2.20;1.80;;;;;;;11.41;58.99;100835.48;218456;1256;138786;-68
2023/05/03 06:41:18;;;;;;;3.90;2.10;;;;;;;11.48;58.55;100841.81;218463;1256;141451;-66
2023/05/03 06:46:23;;;;;;;1.90;1.80;;;;;;;11.53;57.60;100844.14;218188;1256;139131;-66
2023/05/03 06:51:32;;;;;;;2.00;1.80;;;;;;;11.58;57.36;100848.27;218274;1256;140137;-66
2023/05/03 06:56:37;;;;;;;2.40;1.80;;;;;;;11.58;56.32;100852.61;218648;1256;139394;-67
2023/05/03 07:01:42;;;;;;;1.50;1.40;;;;;;;11.60;56.68;100857.45;217653;1256;139242;-66
2023/05/03 07:06:47;;;;;;;6.10;2.10;;;;;;;11.84;55.89;100860.13;217511;1258;139400;-67
2023/05/03 07:11:57;;;;;;;1.20;0.90;;;;;;;12.25;55.25;100856.50;218988;1258;139283;-67
2023/05/03 07:17:02;;;;;;;2.10;1.30;;;;;;;12.67;54.36;100852.21;218327;1257;140145;-67
2023/05/03 07:22:07;;;;;;;1.50;1.40;;;;;;;12.98;53.49;100851.54;218616;1257;139997;-68
2023/05/03 07:27:14;;;;;;;2.50;1.30;;;;;;;13.30;53.15;100854.20;218530;1257;206279;-66
2023/05/03 07:32:21;;;;;;;2.80;1.70;;;;;;;13.40;52.44;100854.37;217667;1257;139288;-66
2023/05/03 07:37:27;;;;;;;3.60;1.30;;;;;;;13.48;52.36;100852.97;218373;1257;142366;-70
2023/05/03 07:42:31;;;;;;;1.50;1.30;;;;;;;13.55;51.91;100856.05;218050;1257;139299;-68
2023/05/03 07:47:38;;;;;;;2.10;1.90;;;;;;;13.63;51.88;100858.26;220128;1257;139823;-67
2023/05/03 07:52:42;;;;;;;5.20;2.10;;;;;;;13.94;51.59;100855.08;220138;1257;140881;-69
2023/05/03 07:57:47;;;;;;;2.10;1.70;;;;;;;14.12;50.21;100859.04;219774;1256;139943;-68
2023/05/03 08:02:51;;;;;;;2.10;1.90;;;;;;;14.04;50.47;100857.04;219133;1255;140994;-67
2023/05/03 08:07:55;;;;;;;3.20;2.50;;;;;;;14.57;51.12;100851.55;219640;1256;140487;-68
2023/05/03 08:13:00;;;;;;;2.00;1.90;;;;;;;15.11;50.72;100842.55;218788;1256;140439;-68
2023/05/03 08:18:04;;;;;;;2.50;1.40;;;;;;;15.68;50.88;100845.65;218869;1256;141478;-67
2023/05/03 08:23:10;;;;;;;5.20;2.40;;;;;;;15.68;49.05;100849.30;217816;1256;139077;-68
2023/05/03 08:28:15;;;;;;;2.30;2.00;;;;;;;15.23;48.61;100847.92;218361;1256;139462;-69
2023/05/03 08:33:21;;;;;;;2.50;1.80;;;;;;;15.35;48.55;100848.21;217905;1256;142254;-68
2023/05/03 08:38:25;;;;;;;1.20;1.00;;;;;;;15.18;47.63;100856.42;219403;1255;139757;-69
2023/05/03 08:43:35;;;;;;;2.20;1.60;;;;;;;15.54;47.92;100863.11;217618;1259;140225;-66
2023/05/03 08:48:38;;;;;;;2.10;1.90;;;;;;;15.85;47.37;100861.59;217953;1259;140306;-68
2023/05/03 08:53:43;;;;;;;2.00;1.80;;;;;;;15.70;46.60;100862.65;218399;1255;139737;-67
2023/05/03 08:58:47;;;;;;;8.20;2.30;;;;;;;16.00;47.16;100866.95;218048;1256;140337;-69
2023/05/03 09:03:51;;;;;;;4.20;1.90;;;;;;;16.07;46.09;100865.84;219169;1256;139801;-69
2023/05/03 09:08:56;;;;;;;2.20;1.60;;;;;;;15.84;45.54;100861.59;218107;1257;139619;-70
2023/05/03 09:14:10;;;;;;;3.20;2.00;;;;;;;15.81;45.12;100860.17;218690;1259;140389;-66
2023/05/03 09:19:15;;;;;;;2.80;2.20;;;;;;;16.10;45.29;100860.61;218843;1256;139629;-70
2023/05/03 09:24:20;;;;;;;3.60;2.10;;;;;;;16.46;44.69;100853.55;219260;1256;141239;-67
2023/05/03 09:29:29;;;;;;;1.40;1.30;;;;;;;16.06;44.02;100863.98;217619;1259;140781;-66
2023/05/03 09:34:33;;;;;;;3.10;2.10;;;;;;;16.30;44.16;100855.73;219406;1255;139787;-66
2023/05/03 09:39:37;;;;;;;3.20;2.10;;;;;;;16.63;43.88;100861.31;217982;1259;140371;-68
2023/05/03 09:44:51;;;;;;;2.20;1.90;;;;;;;16.28;43.44;100871.14;220638;1256;140062;-67
2023/05/03 09:49:56;;;;;;;2.10;1.90;;;;;;;16.38;43.76;100871.84;220394;1256;139641;-67
2023/05/03 09:55:00;;;;;;;2.00;1.80;;;;;;;16.83;43.88;100863.75;220494;1256;141527;-70
2023/05/03 10:00:05;;;;;;;4.10;2.60;;;;;;;17.25;43.45;100868.66;219529;1256;139541;-68
2023/05/03 10:05:11;;;;;;;2.20;2.10;;;;;;;16.94;42.23;100868.27;219935;1256;139683;-67
2023/05/03 10:10:16;;;;;;;3.60;2.00;;;;;;;16.94;41.89;100866.42;218623;1257;140408;-68
2023/05/03 10:15:22;;;;;;;3.00;1.80;;;;;;;16.47;41.50;100876.30;219251;1256;141014;-68
2023/05/03 10:20:38;;;;;;;3.50;1.70;;;;;;;16.06;41.90;100875.45;219095;1256;140872;-70
2023/05/03 10:26:05;;;;;;;3.00;2.20;;;;;;;16.58;42.43;100866.87;218492;1259;139619;-69
2023/05/03 10:31:45;;;;;;;3.60;2.10;;;;;;;17.18;41.67;100859.58;218152;1258;139140;-66
2023/05/03 10:36:54;;;;;;;1.80;1.60;;;;;;;17.11;41.23;100859.45;218480;1256;140209;-67
2023/05/03 10:42:03;;;;;;;2.70;1.80;;;;;;;17.34;41.45;100851.03;218318;1257;139284;-69
2023/05/03 10:47:16;;;;;;;3.00;2.50;;;;;;;17.89;41.48;100846.66;218010;1256;140257;-68
2023/05/03 10:52:39;;;;;;;1.40;1.30;;;;;;;18.07;40.69;100855.73;217619;1255;139294;-68
2023/05/03 10:57:46;;;;;;;1.80;1.50;;;;;;;17.50;40.36;100853.80;218448;1256;139189;-68
2023/05/03 11:02:57;;;;;;;3.80;1.80;;;;;;;17.33;40.46;100860.14;217991;1257;139626;-68
2023/05/03 11:08:21;;;;;;;1.80;1.40;;;;;;;17.64;40.30;100859.58;218917;1259;139913;-68
2023/05/03 11:13:25;;;;;;;3.40;2.40;;;;;;;17.67;39.68;100863.45;218595;1255;141209;-69
2023/05/03 11:18:31;;;;;;;4.50;2.50;;;;;;;17.64;39.55;100855.96;217906;1257;140277;-68
2023/05/03 11:23:40;;;;;;;2.70;2.20;;;;;;;17.60;39.59;100854.51;217685;1259;139545;-69
2023/05/03 11:28:48;;;;;;;2.60;2.00;;;;;;;17.46;39.31;100865.36;218248;1256;139468;-68
2023/05/03 11:33:52;;;;;;;2.00;1.70;;;;;;;16.81;39.14;100867.44;217529;1259;138952;-69
2023/05/03 11:38:56;;;;;;;4.70;2.30;;;;;;;16.93;39.77;100865.94;217624;1256;140171;-67
2023/05/03 11:44:00;;;;;;;4.80;1.90;;;;;;;17.42;39.73;100860.67;217680;1259;140237;-67
2023/05/03 11:49:19;;;;;;;2.30;2.20;;;;;;;17.60;39.15;100866.11;217524;1256;139704;-68
2023/05/03 11:54:25;;;;;;;2.80;2.00;;;;;;;16.83;38.72;100868.75;219666;1256;139724;-68
2023/05/03 11:59:41;;;;;;;7.40;2.50;;;;;;;16.68;39.43;100862.67;219378;1257;140610;-67
2023/05/03 12:04:45;;;;;;;3.20;2.30;;;;;;;17.20;39.70;100850.77;218954;1260;139757;-68
2023/05/03 12:09:50;;;;;;;4.60;2.00;;;;;;;17.36;39.39;100850.85;218401;1256;141008;-69
2023/05/03 12:15:14;;;;;;;2.50;2.20;;;;;;;17.07;38.72;100859.92;217728;1257;140315;-69
2023/05/03 12:20:22;;;;;;;3.20;2.30;;;;;;;17.14;38.76;100853.80;217770;1256;139188;-66
2023/05/03 12:25:30;;;;;;;3.10;2.30;;;;;;;17.26;38.46;100854.13;217471;1256;139965;-69
2023/05/03 12:30:37;;;;;;;3.10;1.50;;;;;;;17.48;38.68;100850.49;217936;1256;139661;-72
2023/05/03 12:35:43;;;;;;;3.20;1.90;;;;;;;17.57;37.97;100848.66;217491;1256;140525;-71
2023/05/03 12:40:51;;;;;;;3.50;2.10;;;;;;;17.22;38.22;100847.61;217538;1256;140062;-71
2023/05/03 12:45:57;;;;;;;3.90;2.10;;;;;;;16.74;38.43;100850.54;217955;1257;139120;-69
2023/05/03 12:51:22;;;;;;;2.30;1.90;;;;;;;16.28;38.41;100847.02;218600;1256;139457;-68
2023/05/03 12:56:29;;;;;;;7.10;2.60;;;;;;;16.43;38.61;100840.22;217967;1259;139465;-72
2023/05/03 13:01:36;;;;;;;4.30;1.90;;;;;;;16.59;38.71;100837.44;218419;1256;140142;-68
2023/05/03 13:07:01;;;;;;;6.50;1.90;;;;;;;16.79;38.36;100833.87;217667;1259;139424;-68
2023/05/03 13:12:06;;;;;;;1.70;1.60;;;;;;;16.91;38.32;100833.86;218718;1256;139606;-69
2023/05/03 13:17:12;;;;;;;3.60;2.50;;;;;;;17.06;37.85;100829.48;217847;1257;141482;-67
2023/05/03 13:22:17;;;;;;;2.50;2.10;;;;;;;17.08;37.54;100824.06;219260;1256;139329;-68
2023/05/03 13:27:21;;;;;;;2.20;2.00;;;;;;;17.07;37.33;100816.09;218314;1256;140125;-68
2023/05/03 13:32:24;;;;;;;3.00;2.30;;;;;;;17.05;37.23;100806.30;220431;1256;142419;-67
2023/05/03 13:37:30;;;;;;;2.20;0.80;;;;;;;17.12;36.96;100802.50;220435;1256;139609;-68
2023/05/03 13:42:37;;;;;;;2.40;1.30;;;;;;;17.05;36.74;100792.08;220375;1256;141484;-68
2023/05/03 13:47:42;;;;;;;1.50;1.40;;;;;;;16.97;36.52;100793.21;220298;1256;141521;-70
2023/05/03 13:52:56;;;;;;;4.80;1.80;;;;;;;16.94;36.35;100792.91;217849;1257;139708;-68
2023/05/03 13:58:03;;;;;;;3.60;1.40;;;;;;;16.84;35.81;100789.13;219522;1257;139883;-69
2023/05/03 14:03:10;;;;;;;1.40;1.10;;;;;;;16.75;36.23;100785.80;219412;1256;139484;-70
2023/05/03 14:08:16;;;;;;;3.10;1.30;;;;;;;16.52;35.66;100791.52;220091;1255;140587;-68
2023/05/03 14:13:25;;;;;;;3.80;3.40;;;;;;;16.40;36.08;100791.64;217691;1257;139229;-68
2023/05/03 14:18:38;;;;;;;2.70;1.60;;;;;;;16.42;36.15;100786.87;219176;1256;139731;-69
2023/05/03 14:23:48;;;;;;;1.20;1.10;;;;;;;16.48;36.14;100784.27;217972;1257;139946;-69
2023/05/03 14:28:54;;;;;;;3.10;1.20;;;;;;;16.47;35.35;100789.02;218260;1254;209768;-70
2023/05/03 14:33:59;;;;;;;4.00;1.50;;;;;;;16.20;35.04;100785.84;218070;1258;140296;-69
2023/05/03 14:39:05;;;;;;;1.30;1.00;;;;;;;16.22;35.30;100790.71;217975;1256;140341;-69
2023/05/03 14:44:10;;;;;;;1.30;0.90;;;;;;;16.21;35.59;100789.08;218270;1257;139639;-67
2023/05/03 14:49:16;;;;;;;1.20;1.10;;;;;;;16.15;35.30;100786.59;218574;1259;139215;-66
2023/05/03 14:54:24;;;;;;;3.50;1.50;;;;;;;16.08;35.55;100791.19;219186;1257;139742;-68
2023/05/03 14:59:33;;;;;;;1.00;1.00;;;;;;;16.08;35.42;100790.61;217422;1256;139821;-68
2023/05/03 15:04:37;;;;;;;1.50;1.20;;;;;;;16.07;35.44;100794.46;218362;1257;140359;-67
2023/05/03 15:09:43;;;;;;;3.40;1.30;;;;;;;15.80;35.19;100803.53;217451;1257;140427;-69
2023/05/03 15:14:48;;;;;;;2.50;1.90;;;;;;;15.35;35.48;100801.52;219250;1256;140311;-69
2023/05/03 15:19:53;;;;;;;1.10;1.10;;;;;;;15.20;36.19;100804.45;215605;1259;3919625;-68
2023/05/03 15:24:59;;;;;;;1.00;0.90;;;;;;;15.10;36.39;100803.44;218621;1256;140653;-68
2023/05/03 15:30:04;;;;;;;1.60;0.80;;;;;;;15.17;36.80;100799.50;217769;1259;231225;-73
2023/05/03 15:35:09;;;;;;;2.20;1.20;;;;;;;15.24;36.63;100798.84;219004;1257;140607;-71
2023/05/03 15:40:13;;;;;;;4.30;1.40;;;;;;;15.15;36.41;100802.36;218857;1259;140213;-76
2023/05/03 15:45:17;;;;;;;0.70;0.60;;;;;;;14.82;36.72;100804.59;220470;1256;140247;-69
2023/05/03 15:50:21;;;;;;;1.70;1.40;;;;;;;14.55;37.24;100805.48;220541;1257;140103;-71
2023/05/03 15:55:25;;;;;;;3.70;1.20;;;;;;;14.42;37.44;100805.73;220471;1257;139798;-70
2023/05/03 16:00:29;;;;;;;4.30;2.30;;;;;;;14.45;37.50;100798.59;218998;1260;140294;-66
2023/05/03 16:05:35;;;;;;;1.50;1.30;;;;;;;14.50;37.53;100797.14;219644;1259;140083;-66
2023/05/03 16:10:41;;;;;;;1.70;1.60;;;;;;;14.56;37.37;100793.67;219014;1256;139621;-69
2023/05/03 16:15:47;;;;;;;1.40;1.30;;;;;;;14.59;37.27;100795.09;218823;1259;139181;-68
2023/05/03 16:20:53;;;;;;;1.40;1.30;;;;;;;14.62;37.41;100793.44;217686;1259;139954;-68
2023/05/03 16:25:58;;;;;;;3.90;1.40;;;;;;;14.58;37.30;100797.59;218767;1259;140469;-68
2023/05/03 16:31:04;;;;;;;2.70;2.00;;;;;;;14.47;37.30;100794.05;218664;1259;140916;-69
2023/05/03 16:36:15;;;;;;;2.00;1.80;;;;;;;14.37;37.86;100797.31;218476;1257;139600;-67
2023/05/03 16:41:20;;;;;;;1.60;1.50;;;;;;;14.28;37.99;100799.09;217590;1257;139761;-75
2023/05/03 16:46:27;;;;;;;;;;;;;;;14.18;38.05;100798.67;218004;1257;139027;-67
2023/05/03 16:51:39;;;;;;;1.50;1.40;;;;;;;14.06;38.09;100802.21;218368;1259;125875;-67
2023/05/03 16:56:47;;;;;;;2.90;1.20;;;;;;;14.00;38.09;100802.38;217511;1257;140057;-66
2023/05/03 17:01:55;;;;;;;4.00;1.40;;;;;;;13.93;38.50;100803.98;218094;1258;141167;-70
2023/05/03 17:07:02;;;;;;;2.00;1.70;;;;;;;13.78;38.24;100807.86;218571;1258;139800;-68
2023/05/03 17:12:08;;;;;;;1.00;0.90;;;;;;;13.66;38.52;100804.13;218420;1259;139485;-71
2023/05/03 17:17:15;;;;;;;2.90;1.70;;;;;;;13.58;38.81;100805.73;217586;1258;140241;-70
2023/05/03 17:22:22;;;;;;;2.30;2.00;;;;;;;13.46;38.75;100810.06;218748;1259;139742;-67
2023/05/03 17:27:27;;;;;;;1.70;1.50;;;;;;;13.31;39.16;100815.02;219383;1259;139794;-69
2023/05/03 17:32:32;;;;;;;3.10;2.30;;;;;;;13.16;38.98;100812.34;218581;1256;141705;-68
2023/05/03 17:37:37;;;;;;;2.20;2.00;;;;;;;13.02;39.88;100814.28;219720;1259;139543;-68
2023/05/03 17:42:42;;;;;;;3.90;3.40;;;;;;;12.84;41.26;100815.39;220349;1259;139766;-68
2023/05/03 17:47:46;;;;;;;8.10;3.60;;;;;;;12.65;42.26;100817.04;220409;1256;140352;-68
2023/05/03 17:52:51;;;;;;;5.20;2.70;;;;;;;12.43;42.70;100815.90;220426;1255;139766;-68
2023/05/03 17:57:55;;;;;;;5.20;2.90;;;;;;;12.20;43.26;100814.38;219769;1256;139912;-68
2023/05/03 18:03:00;;;;;;;5.80;3.20;;;;;;;12.00;43.02;100814.59;218641;1257;139084;-68
2023/05/03 18:08:05;;;;;;;2.40;2.00;;;;;;;11.73;42.85;100821.63;218060;1260;139128;-70
2023/05/03 18:13:15;;;;;;;3.20;1.60;;;;;;;11.41;43.90;100824.64;218634;1257;140026;-70
2023/05/03 18:18:21;;;;;;;4.00;1.90;;;;;;;11.10;45.27;100832.39;218049;1256;140513;-70
2023/05/03 18:23:33;;;;;;;2.10;1.30;;;;;;;10.84;46.70;100830.22;218665;1258;139749;-70
2023/05/03 18:28:38;;;;;;;1.90;1.50;;;;;;;10.61;47.08;100837.36;217809;1259;139652;-69
2023/05/03 18:33:42;;;;;;;2.10;1.40;;;;;;;10.34;47.69;100834.08;218627;1260;139161;-70
2023/05/03 18:38:47;;;;;;;1.20;1.20;;;;;;;10.04;48.32;100832.58;217985;1257;139230;-70
2023/05/03 18:43:53;;;;;;;4.50;2.20;;;;;;;9.74;49.52;100841.73;217887;1259;140085;-70
2023/05/03 18:48:58;;;;;;;2.20;2.10;;;;;;;9.46;50.44;100840.17;218128;1255;138885;-70
2023/05/03 18:54:05;;;;;;;2.50;1.70;;;;;;;9.12;51.07;100848.41;217778;1257;139914;-69
2023/05/03 18:59:11;;;;;;;1.60;1.50;;;;;;;8.77;51.72;100852.36;217632;1260;139761;-69
2023/05/03 19:04:14;;;;;;;1.60;1.50;;;;;;;8.56;52.89;100853.00;219871;1259;139314;-69
2023/05/03 19:09:19;;;;;;;2.70;2.00;;;;;;;8.38;53.19;100854.63;218719;1259;138615;-68
2023/05/03 19:14:26;;;;;;;5.20;2.10;;;;;;;8.04;53.21;100857.84;218973;1257;138822;-68
2023/05/03 19:19:30;;;;;;;1.80;1.60;;;;;;;7.80;53.68;100867.38;218660;1256;139279;-68
2023/05/03 19:24:35;;;;;;;3.10;1.90;;;;;;;7.64;54.19;100864.27;220416;1257;139531;-68
2023/05/03 19:29:40;;;;;;;5.20;3.00;;;;;;;7.44;54.49;100864.98;220357;1257;138863;-68
2023/05/03 19:34:45;;;;;;;2.20;1.90;;;;;;;7.33;55.25;100866.73;218947;1257;139865;-68
2023/05/03 19:39:50;;;;;;;5.40;2.60;;;;;;;7.23;56.38;100868.20;219493;1257;139340;-68
2023/05/03 19:44:58;;;;;;;3.90;2.80;;;;;;;7.02;56.22;100871.17;219050;1257;139298;-68
2023/05/03 19:50:03;;;;;;;3.10;2.80;;;;;;;6.79;56.67;100870.92;218110;1259;139363;-67
2023/05/03 19:55:09;;;;;;;6.30;3.90;;;;;;;6.63;57.45;100871.47;218660;1256;138847;-68
2023/05/03 20:00:17;;;;;;;3.80;2.80;;;;;;;6.58;57.63;100870.28;218611;1258;140335;-67
2023/05/03 20:05:23;;;;;;;4.50;3.20;;;;;;;6.52;57.96;100867.50;217898;1257;138740;-67
2023/05/03 20:10:34;;;;;;;4.30;3.30;;;;;;;6.30;57.82;100865.69;217945;1259;141071;-67
2023/05/03 20:15:40;;;;;;;5.10;3.30;;;;;;;6.17;58.78;100865.67;217883;1256;139654;-67
2023/05/03 20:20:45;;;;;;;7.30;4.10;;;;;;;6.06;59.00;100865.30;218008;1257;219903;-67
2023/05/03 20:25:50;;;;;;;;;;;;;;;6.01;59.51;100861.50;217861;1257;138673;-67
2023/05/03 20:30:55;;;;;;;;;;;;;;;5.88;60.17;100860.55;218464;1257;125280;-67
2023/05/03 20:36:00;;;;;;;;;;;;;;;5.64;60.08;100867.12;218522;1257;126147;-67
2023/05/03 20:41:05;;;;;;;;;;;;;;;5.54;60.65;100867.94;218715;1258;125564;-67
2023/05/03 20:46:10;;;;;;;;;;;;;;;5.35;60.82;100870.79;218416;1257;127523;-67
2023/05/03 20:51:14;;;;;;;;;;;;;;;5.26;61.43;100874.33;219341;1256;125466;-67
2023/05/03 20:56:20;;;;;;;;;;;;;;;5.13;61.53;100872.08;219015;1257;127202;-67
2023/05/03 21:01:24;;;;;;;;;;;;;;;5.03;61.95;100874.77;219314;1256;126279;-67
2023/05/03 21:06:29;;;;;;;;;;;;;;;4.91;62.22;100870.11;218637;1256;126393;-67
2023/05/03 21:11:33;;;;;;;;;;;;;;;4.76;62.71;100865.31;220050;1257;126208;-67
2023/05/03 21:16:37;;;;;;;;;;;;;;;4.61;62.71;100866.15;220957;1256;126305;-67
2023/05/03 21:21:41;;;;;;;;;;;;;;;4.52;63.36;100861.63;218838;1259;125723;-67
2023/05/03 21:26:51;;;;;;;;;;;;;;;4.40;63.43;100860.82;221007;1256;126444;-67
2023/05/03 21:31:56;;;;;;;;;;;;;;;4.34;63.93;100854.36;220532;1256;125909;-67
2023/05/03 21:37:00;;;;;;;;;;;;;;;4.35;64.40;100854.29;220962;1256;125245;-67
2023/05/03 21:42:05;;;;;;;;;;;;;;;4.33;64.16;100854.26;219185;1256;125486;-66
2023/05/03 21:47:10;;;;;;;;;;;;;;;4.22;64.24;100856.99;220285;1257;126239;-67
2023/05/03 21:52:15;;;;;;;;;;;;;;;4.19;64.83;100861.71;218642;1256;210366;-66
2023/05/03 21:57:20;;;;;;;;;;;;;;;4.06;64.60;100861.83;219896;1256;125895;-67
2023/05/03 22:02:25;;;;;;;;;;;;;;;3.94;64.93;100862.45;218687;1257;126026;-67
2023/05/03 22:07:30;;;;;;;;;;;;;;;3.77;65.10;100869.20;219693;1255;125144;-66
2023/05/03 22:12:33;;;;;;;;;;;;;;;3.70;65.76;100872.02;218459;1259;125655;-66
2023/05/03 22:17:37;;;;;;;;;;;;;;;3.59;65.82;100868.88;218564;1256;125522;-66
2023/05/03 22:22:42;;;;;;;;;;;;;;;3.41;66.16;100867.05;218388;1257;125534;-66
2023/05/03 22:27:47;;;;;;;;;;;;;;;3.34;66.62;100867.30;219881;1256;126589;-67
2023/05/03 22:32:50;;;;;;;;;;;;;;;3.35;66.86;100866.85;218592;1256;125914;-66
2023/05/03 22:37:55;;;;;;;;;;;;;;;3.35;67.06;100864.94;219011;1256;126886;-66
2023/05/03 22:42:59;;;;;;;;;;;;;;;3.21;67.02;100866.85;218704;1256;125950;-66
2023/05/03 22:48:03;;;;;;;;;;;;;;;2.99;67.10;100865.84;218541;1255;126263;-66
2023/05/03 22:53:09;;;;;;;;;;;;;;;2.89;67.83;100866.35;219392;1256;126162;-66
2023/05/03 22:58:14;;;;;;;;;;;;;;;2.86;67.77;100868.95;218565;1256;126009;-65
2023/05/03 23:03:19;;;;;;;;;;;;;;;2.76;68.06;100867.27;219212;1256;125786;-65
2023/05/03 23:08:24;;;;;;;;;;;;;;;2.58;67.68;100862.89;218281;1257;125866;-66
2023/05/03 23:13:28;;;;;;;;;;;;;;;2.44;68.46;100859.23;219608;1256;126519;-65
2023/05/03 23:18:33;;;;;;;;;;;;;;;2.37;68.64;100856.71;219365;1256;126427;-66
2023/05/03 23:23:37;;;;;;;;;;;;;;;2.33;68.87;100853.44;221044;1256;126470;-67
2023/05/03 23:28:42;;;;;;;;;;;;;;;2.38;69.16;100849.98;220899;1256;125810;-67
2023/05/03 23:33:47;;;;;;;;;;;;;;;2.44;69.44;100850.64;221013;1256;127267;-67